createdAt,value
2019-01-28T00:00:03.320Z,4.90
2019-01-28T00:01:03.127Z,5.10
2019-01-28T00:02:03.040Z,4.70
2019-01-28T00:03:03.139Z,4.60
2019-01-28T00:04:02.906Z,4.50
2019-01-28T00:05:02.938Z,5.00
2019-01-28T00:06:02.698Z,5.10
2019-01-28T00:07:02.747Z,5.00
2019-01-28T00:08:02.522Z,5.20
2019-01-28T00:09:02.601Z,4.90
2019-01-28T00:10:02.347Z,4.60
2019-01-28T00:11:02.373Z,4.90
2019-01-28T00:12:02.172Z,4.40
2019-01-28T00:13:02.175Z,5.60
2019-01-28T00:14:02.020Z,4.60
2019-01-28T00:15:01.981Z,5.10
2019-01-28T00:16:01.827Z,5.20
2019-01-28T00:17:01.791Z,5.10
2019-01-28T00:18:01.655Z,4.40
2019-01-28T00:19:01.842Z,5.00
2019-01-28T00:20:01.477Z,4.80
2019-01-28T00:21:01.409Z,4.90
2019-01-28T00:22:01.311Z,4.60
2019-01-28T00:23:01.217Z,5.30
2019-01-28T00:24:01.222Z,4.90
2019-01-28T00:25:01.067Z,4.90
2019-01-28T00:26:00.956Z,4.60
2019-01-28T00:27:01.038Z,4.80
2019-01-28T00:28:00.780Z,4.70
2019-01-28T00:29:00.696Z,4.30
2019-01-28T00:30:00.677Z,4.80
2019-01-28T00:31:00.527Z,4.70
2019-01-28T00:32:00.449Z,4.50
2019-01-28T00:33:00.488Z,4.60
2019-01-28T00:34:00.296Z,4.90
2019-01-28T00:35:00.276Z,5.00
2019-01-28T00:36:00.294Z,4.70
2019-01-28T00:37:00.005Z,4.50
2019-01-28T00:37:59.914Z,4.60
2019-01-28T00:38:59.889Z,4.90
2019-01-28T00:39:59.760Z,4.70
2019-01-28T00:40:59.652Z,4.80
2019-01-28T00:41:59.703Z,4.80
2019-01-28T00:42:59.481Z,4.70
2019-01-28T00:43:59.514Z,4.90
2019-01-28T00:44:59.334Z,4.90
2019-01-28T00:45:59.322Z,4.80
2019-01-28T00:46:59.134Z,4.70
2019-01-28T00:47:59.044Z,5.00
2019-01-28T00:48:59.133Z,4.70
2019-01-28T00:49:58.876Z,4.90
2019-01-28T00:50:58.799Z,4.90
2019-01-28T00:51:58.744Z,4.50
2019-01-28T00:52:58.609Z,4.70
2019-01-28T00:53:58.559Z,5.10
2019-01-28T00:54:58.436Z,5.00
2019-01-28T00:55:58.394Z,4.90
2019-01-28T00:56:58.267Z,5.20
2019-01-28T00:57:58.180Z,4.50
2019-01-28T00:58:58.177Z,5.20
2019-01-28T00:59:58.005Z,4.90
2019-01-28T01:00:57.934Z,4.90
2019-01-28T01:01:57.992Z,5.00
2019-01-28T01:02:57.742Z,5.00
2019-01-28T01:03:57.804Z,4.90
2019-01-28T01:04:57.573Z,5.30
2019-01-28T01:05:57.641Z,4.90
2019-01-28T01:06:57.397Z,4.60
2019-01-28T01:07:57.418Z,4.40
2019-01-28T01:08:57.219Z,4.70
2019-01-28T01:09:57.228Z,4.50
2019-01-28T01:10:57.064Z,4.20
2019-01-28T01:11:57.034Z,4.20
2019-01-28T01:12:56.873Z,4.20
2019-01-28T01:13:56.840Z,4.30
2019-01-28T01:14:56.701Z,3.90
2019-01-28T01:15:56.685Z,4.10
2019-01-28T01:16:56.525Z,4.50
2019-01-28T01:17:56.459Z,4.30
2019-01-28T01:18:56.355Z,3.50
2019-01-28T01:19:56.472Z,4.00
2019-01-28T01:20:56.318Z,3.90
2019-01-28T01:21:56.092Z,4.20
2019-01-28T01:22:56.083Z,3.90
2019-01-28T01:23:55.915Z,3.40
2019-01-28T01:24:55.833Z,3.70
2019-01-28T01:25:55.898Z,4.00
2019-01-28T01:26:55.668Z,3.20
2019-01-28T01:27:55.567Z,3.10
2019-01-28T01:28:55.507Z,3.40
2019-01-28T01:29:55.392Z,3.40
2019-01-28T01:30:55.313Z,3.30
2019-01-28T01:31:55.359Z,3.80
2019-01-28T01:32:55.131Z,3.30
2019-01-28T01:33:55.131Z,3.40
2019-01-28T01:34:54.960Z,3.50
2019-01-28T01:35:54.940Z,3.10
2019-01-28T01:36:54.806Z,3.40
2019-01-28T01:37:54.699Z,2.70
2019-01-28T01:38:54.755Z,2.80
2019-01-28T01:39:54.529Z,2.90
2019-01-28T01:40:54.435Z,3.00
2019-01-28T01:41:54.401Z,3.40
2019-01-28T01:42:54.268Z,3.20
2019-01-28T01:43:54.234Z,3.20
2019-01-28T01:44:54.180Z,3.20
2019-01-28T01:45:54.002Z,3.00
2019-01-28T01:46:53.949Z,2.60
2019-01-28T01:47:53.998Z,3.10
2019-01-28T01:48:53.742Z,2.80
2019-01-28T01:49:53.651Z,2.30
2019-01-28T01:50:53.605Z,3.00
2019-01-28T01:51:53.473Z,2.60
2019-01-28T01:52:53.408Z,2.40
2019-01-28T01:53:53.423Z,2.70
2019-01-28T01:54:53.217Z,2.60
2019-01-28T01:55:53.229Z,2.50
2019-01-28T01:56:53.040Z,2.60
2019-01-28T01:57:52.965Z,2.40
2019-01-28T01:58:53.043Z,2.60
2019-01-28T01:59:52.779Z,2.70
2019-01-28T02:00:52.692Z,2.80
2019-01-28T02:01:52.703Z,2.20
2019-01-28T02:02:52.537Z,2.40
2019-01-28T02:03:52.466Z,2.40
2019-01-28T02:04:52.374Z,2.10
2019-01-28T02:05:52.276Z,2.40
2019-01-28T02:06:52.170Z,2.30
2019-01-28T02:07:52.101Z,2.40
2019-01-28T02:08:52.086Z,2.40
2019-01-28T02:09:51.908Z,2.50
2019-01-28T02:10:51.820Z,2.50
2019-01-28T02:11:51.905Z,2.70
2019-01-28T02:12:51.680Z,2.80
2019-01-28T02:13:51.713Z,2.40
2019-01-28T02:14:51.468Z,2.60
2019-01-28T02:15:51.518Z,2.60
2019-01-28T02:16:51.302Z,2.70
2019-01-28T02:17:51.208Z,3.10
2019-01-28T02:18:51.160Z,2.50
2019-01-28T02:19:51.036Z,2.70
2019-01-28T02:20:50.945Z,2.70
2019-01-28T02:21:50.943Z,2.90
2019-01-28T02:22:50.770Z,2.70
2019-01-28T02:23:50.788Z,2.70
2019-01-28T02:24:50.599Z,3.30
2019-01-28T02:25:50.565Z,2.80
2019-01-28T02:26:50.423Z,2.70
2019-01-28T02:27:50.341Z,2.70
2019-01-28T02:28:50.273Z,3.30
2019-01-28T02:29:50.177Z,2.60
2019-01-28T02:30:50.073Z,2.50
2019-01-28T02:31:50.191Z,2.90
2019-01-28T02:32:49.904Z,3.00
2019-01-28T02:33:49.809Z,2.90
2019-01-28T02:34:49.831Z,3.10
2019-01-28T02:35:49.634Z,3.50
2019-01-28T02:36:49.552Z,3.00
2019-01-28T02:37:49.619Z,3.00
2019-01-28T02:38:49.374Z,3.20
2019-01-28T02:39:49.304Z,2.70
2019-01-28T02:40:49.228Z,2.70
2019-01-28T02:41:49.109Z,3.00
2019-01-28T02:42:49.029Z,2.90
2019-01-28T02:43:49.042Z,2.90
2019-01-28T02:44:48.862Z,2.70
2019-01-28T02:45:48.853Z,3.30
2019-01-28T02:46:48.682Z,2.90
2019-01-28T02:47:48.584Z,3.10
2019-01-28T02:48:48.664Z,3.20
2019-01-28T02:49:48.424Z,3.30
2019-01-28T02:50:48.323Z,3.50
2019-01-28T02:51:48.278Z,3.70
2019-01-28T02:52:48.147Z,3.60
2019-01-28T02:53:48.088Z,3.80
2019-01-28T02:54:47.985Z,3.60
2019-01-28T02:55:48.100Z,3.70
2019-01-28T02:56:47.803Z,4.10
2019-01-28T02:57:47.908Z,3.90
2019-01-28T02:58:47.629Z,3.40
2019-01-28T02:59:47.751Z,3.70
2019-01-28T03:00:47.449Z,3.90
2019-01-28T03:01:47.523Z,3.40
2019-01-28T03:02:47.272Z,3.80
2019-01-28T03:03:47.329Z,3.70
2019-01-28T03:04:47.096Z,3.80
2019-01-28T03:05:47.186Z,4.10
2019-01-28T03:06:46.928Z,3.70
2019-01-28T03:07:46.836Z,4.00
2019-01-28T03:08:46.957Z,3.80
2019-01-28T03:09:46.659Z,4.00
2019-01-28T03:10:46.595Z,4.20
2019-01-28T03:11:46.565Z,4.50
2019-01-28T03:12:46.398Z,4.10
2019-01-28T03:13:46.374Z,4.20
2019-01-28T03:14:46.227Z,4.20
2019-01-28T03:15:46.215Z,4.20
2019-01-28T03:16:46.050Z,3.70
2019-01-28T03:17:45.995Z,3.90
2019-01-28T03:18:45.870Z,4.30
2019-01-28T03:19:45.799Z,3.40
2019-01-28T03:20:45.697Z,3.90
2019-01-28T03:21:45.645Z,3.60
2019-01-28T03:22:45.533Z,3.90
2019-01-28T03:23:45.442Z,3.50
2019-01-28T03:24:45.423Z,3.70
2019-01-28T03:25:45.262Z,3.70
2019-01-28T03:26:45.199Z,3.40
2019-01-28T03:27:45.237Z,3.90
2019-01-28T03:28:45.013Z,3.50
2019-01-28T03:29:45.047Z,3.70
2019-01-28T03:30:44.821Z,3.50
2019-01-28T03:31:44.861Z,3.70
2019-01-28T03:32:44.660Z,3.40
2019-01-28T03:33:44.666Z,3.40
2019-01-28T03:34:44.469Z,3.60
2019-01-28T03:35:44.476Z,3.30
2019-01-28T03:36:44.300Z,3.70
2019-01-28T03:37:44.314Z,3.70
2019-01-28T03:38:44.119Z,3.40
2019-01-28T03:39:44.089Z,3.30
2019-01-28T03:40:43.941Z,3.20
2019-01-28T03:41:43.902Z,2.80
2019-01-28T03:42:43.784Z,2.30
2019-01-28T03:43:43.707Z,2.70
2019-01-28T03:44:43.591Z,2.80
2019-01-28T03:45:43.721Z,2.70
2019-01-28T03:46:43.420Z,2.50
2019-01-28T03:47:43.558Z,2.80
2019-01-28T03:48:43.243Z,2.80
2019-01-28T03:49:43.335Z,2.70
2019-01-28T03:50:43.071Z,2.90
2019-01-28T03:51:43.144Z,2.70
2019-01-28T03:52:42.921Z,2.70
2019-01-28T03:53:42.957Z,3.30
2019-01-28T03:54:42.714Z,2.70
2019-01-28T03:55:42.764Z,3.00
2019-01-28T03:56:42.537Z,2.90
2019-01-28T03:57:42.574Z,2.80
2019-01-28T03:58:42.383Z,2.80
2019-01-28T03:59:42.380Z,2.90
2019-01-28T04:00:42.193Z,2.70
2019-01-28T04:01:42.189Z,2.80
2019-01-28T04:02:42.016Z,2.70
2019-01-28T04:03:41.937Z,2.70
2019-01-28T04:04:42.001Z,2.60
2019-01-28T04:05:41.750Z,2.60
2019-01-28T04:06:41.667Z,2.70
2019-01-28T04:07:41.615Z,2.80
2019-01-28T04:08:41.501Z,2.30
2019-01-28T04:09:41.397Z,2.80
2019-01-28T04:10:41.425Z,2.50
2019-01-28T04:11:41.226Z,2.60
2019-01-28T04:12:41.140Z,2.70
2019-01-28T04:13:41.277Z,2.60
2019-01-28T04:14:40.964Z,2.60
2019-01-28T04:15:40.870Z,2.80
2019-01-28T04:16:40.853Z,2.50
2019-01-28T04:17:40.698Z,2.80
2019-01-28T04:18:40.665Z,2.70
2019-01-28T04:19:40.667Z,2.60
2019-01-28T04:20:40.430Z,3.10
2019-01-28T04:21:40.345Z,2.70
2019-01-28T04:22:40.279Z,2.60
2019-01-28T04:23:40.181Z,2.50
2019-01-28T04:24:40.292Z,2.90
2019-01-28T04:25:39.999Z,2.80
2019-01-28T04:26:40.100Z,2.80
2019-01-28T04:27:39.818Z,2.60
2019-01-28T04:28:39.757Z,2.70
2019-01-28T04:29:39.650Z,2.40
2019-01-28T04:30:39.719Z,2.70
2019-01-28T04:31:39.466Z,2.60
2019-01-28T04:32:39.380Z,3.00
2019-01-28T04:33:39.293Z,3.20
2019-01-28T04:34:39.377Z,2.90
2019-01-28T04:35:39.115Z,2.80
2019-01-28T04:36:39.028Z,3.10
2019-01-28T04:37:39.150Z,2.90
2019-01-28T04:38:38.858Z,2.80
2019-01-28T04:39:38.986Z,2.60
2019-01-28T04:40:38.683Z,2.80
2019-01-28T04:41:38.767Z,3.00
2019-01-28T04:42:38.502Z,3.00
2019-01-28T04:43:38.571Z,2.70
2019-01-28T04:44:38.351Z,2.50
2019-01-28T04:45:38.384Z,2.80
2019-01-28T04:46:38.150Z,2.90
2019-01-28T04:47:38.192Z,2.50
2019-01-28T04:48:37.978Z,2.80
2019-01-28T04:49:38.029Z,2.80
2019-01-28T04:50:37.807Z,2.90
2019-01-28T04:51:37.806Z,2.80
2019-01-28T04:52:37.624Z,2.90
2019-01-28T04:53:37.537Z,3.00
2019-01-28T04:54:37.652Z,3.30
2019-01-28T04:55:37.364Z,3.20
2019-01-28T04:56:37.271Z,3.00
2019-01-28T04:57:37.234Z,3.40
2019-01-28T04:58:37.099Z,3.60
2019-01-28T04:59:37.009Z,3.50
2019-01-28T05:00:37.081Z,3.60
2019-01-28T05:01:36.840Z,3.70
2019-01-28T05:02:36.746Z,3.60
2019-01-28T05:03:36.869Z,3.20
2019-01-28T05:04:36.581Z,3.90
2019-01-28T05:05:36.707Z,3.70
2019-01-28T05:06:36.395Z,3.70
2019-01-28T05:07:36.478Z,4.10
2019-01-28T05:08:36.226Z,3.70
2019-01-28T05:09:36.146Z,3.80
2019-01-28T05:10:36.061Z,3.80
2019-01-28T05:11:36.099Z,3.90
2019-01-28T05:12:35.869Z,3.90
2019-01-28T05:13:35.902Z,4.00
2019-01-28T05:14:35.691Z,4.10
2019-01-28T05:15:35.749Z,4.00
2019-01-28T05:16:35.530Z,4.40
2019-01-28T05:17:35.521Z,4.40
2019-01-28T05:18:35.345Z,4.10
2019-01-28T05:19:35.330Z,4.30
2019-01-28T05:20:35.184Z,4.40
2019-01-28T05:21:35.083Z,4.00
2019-01-28T05:22:35.006Z,4.60
2019-01-28T05:23:34.902Z,3.90
2019-01-28T05:24:34.954Z,4.00
2019-01-28T05:25:34.752Z,4.00
2019-01-28T05:26:34.642Z,3.90
2019-01-28T05:27:34.773Z,3.70
2019-01-28T05:28:34.461Z,4.30
2019-01-28T05:29:34.376Z,3.70
2019-01-28T05:30:34.379Z,3.70
2019-01-28T05:31:34.212Z,3.60
2019-01-28T05:32:34.113Z,3.90
2019-01-28T05:33:34.193Z,5.00
2019-01-28T05:34:33.942Z,4.60
2019-01-28T05:35:34.002Z,6.20
2019-01-28T05:36:33.774Z,5.70
2019-01-28T05:37:33.811Z,3.60
2019-01-28T05:38:33.582Z,4.00
2019-01-28T05:39:33.505Z,3.90
2019-01-28T05:40:33.410Z,3.70
2019-01-28T05:41:33.465Z,3.90
2019-01-28T05:42:33.252Z,3.90
2019-01-28T05:43:33.144Z,3.80
2019-01-28T05:44:33.085Z,4.10
2019-01-28T05:45:32.971Z,4.00
2019-01-28T05:46:32.897Z,4.30
2019-01-28T05:47:32.904Z,4.30
2019-01-28T05:48:32.705Z,4.20
2019-01-28T05:49:32.626Z,4.80
2019-01-28T05:50:32.667Z,4.40
2019-01-28T05:51:32.470Z,7.10
2019-01-28T05:52:32.476Z,5.70
2019-01-28T05:53:32.267Z,4.50
2019-01-28T05:54:32.180Z,4.60
2019-01-28T05:55:32.095Z,4.50
2019-01-28T05:56:32.017Z,4.70
2019-01-28T05:57:31.914Z,4.10
2019-01-28T05:58:31.831Z,4.10
2019-01-28T05:59:31.738Z,4.70
2019-01-28T06:00:31.663Z,4.90
2019-01-28T06:01:31.575Z,4.90
2019-01-28T06:02:31.574Z,4.80
2019-01-28T06:03:31.386Z,5.10
2019-01-28T06:04:31.380Z,5.00
2019-01-28T06:05:31.220Z,4.90
2019-01-28T06:06:31.154Z,5.50
2019-01-28T06:07:31.037Z,5.00
2019-01-28T06:08:30.963Z,5.40
2019-01-28T06:09:30.864Z,5.60
2019-01-28T06:10:30.780Z,6.80
2019-01-28T06:11:30.698Z,6.00
2019-01-28T06:12:30.604Z,5.50
2019-01-28T06:13:30.511Z,6.90
2019-01-28T06:14:30.419Z,6.50
2019-01-28T06:15:30.336Z,6.00
2019-01-28T06:16:30.259Z,6.60
2019-01-28T06:17:30.158Z,6.50
2019-01-28T06:18:30.082Z,6.30
2019-01-28T06:19:29.987Z,6.50
2019-01-28T06:20:29.902Z,6.30
2019-01-28T06:21:29.826Z,6.70
2019-01-28T06:22:29.726Z,6.90
2019-01-28T06:23:29.630Z,6.50
2019-01-28T06:24:29.548Z,6.10
2019-01-28T06:25:29.457Z,6.70
2019-01-28T06:26:29.419Z,6.40
2019-01-28T06:27:29.278Z,6.80
2019-01-28T06:28:29.206Z,6.20
2019-01-28T06:29:29.099Z,6.40
2019-01-28T06:30:29.018Z,6.20
2019-01-28T06:31:28.923Z,6.00
2019-01-28T06:32:28.857Z,6.00
2019-01-28T06:33:28.750Z,7.20
2019-01-28T06:34:28.691Z,6.80
2019-01-28T06:35:28.594Z,6.30
2019-01-28T06:36:28.520Z,6.40
2019-01-28T06:37:28.415Z,6.60
2019-01-28T06:38:28.338Z,6.70
2019-01-28T06:39:28.225Z,6.20
2019-01-28T06:40:28.142Z,6.10
2019-01-28T06:41:28.059Z,6.30
2019-01-28T06:42:27.994Z,5.70
2019-01-28T06:43:27.878Z,6.10
2019-01-28T06:44:27.790Z,5.60
2019-01-28T06:45:27.695Z,6.30
2019-01-28T06:46:27.621Z,5.70
2019-01-28T06:47:27.534Z,6.00
2019-01-28T06:48:27.444Z,6.10
2019-01-28T06:49:27.351Z,5.60
2019-01-28T06:50:27.272Z,5.90
2019-01-28T06:51:27.172Z,6.10
2019-01-28T06:52:27.104Z,5.80
2019-01-28T06:53:26.994Z,5.40
2019-01-28T06:54:26.913Z,5.50
2019-01-28T06:55:26.828Z,5.40
2019-01-28T06:56:26.735Z,5.60
2019-01-28T06:57:26.658Z,5.70
2019-01-28T06:58:26.612Z,5.30
2019-01-28T06:59:26.465Z,5.10
2019-01-28T07:00:26.379Z,5.50
2019-01-28T07:01:26.307Z,5.50
2019-01-28T07:02:26.213Z,6.00
2019-01-28T07:03:26.119Z,6.10
2019-01-28T07:04:26.033Z,5.80
2019-01-28T07:05:25.940Z,5.80
2019-01-28T07:06:25.856Z,5.70
2019-01-28T07:07:25.775Z,6.00
2019-01-28T07:08:25.680Z,6.10
2019-01-28T07:09:25.644Z,6.10
2019-01-28T07:10:25.506Z,6.20
2019-01-28T07:11:25.410Z,6.50
2019-01-28T07:12:25.346Z,5.90
2019-01-28T07:13:25.235Z,6.10
2019-01-28T07:14:25.160Z,6.20
2019-01-28T07:15:25.065Z,6.40
2019-01-28T07:16:24.979Z,6.50
2019-01-28T07:17:24.896Z,6.70
2019-01-28T07:18:24.799Z,6.40
2019-01-28T07:19:28.861Z,6.50
2019-01-28T07:20:24.619Z,6.30
2019-01-28T07:21:24.538Z,6.20
2019-01-28T07:22:24.461Z,6.60
2019-01-28T07:23:24.355Z,6.70
2019-01-28T07:24:24.278Z,6.60
2019-01-28T07:25:24.179Z,6.90
2019-01-28T07:26:24.090Z,6.40
2019-01-28T07:27:24.034Z,6.30
2019-01-28T07:28:23.918Z,5.90
2019-01-28T07:29:23.832Z,6.40
2019-01-28T07:30:23.749Z,6.30
2019-01-28T07:31:23.654Z,5.90
2019-01-28T07:32:23.579Z,6.40
2019-01-28T07:33:23.489Z,6.60
2019-01-28T07:34:23.389Z,5.90
2019-01-28T07:35:23.314Z,5.40
2019-01-28T07:36:23.221Z,6.40
2019-01-28T07:37:23.152Z,6.30
2019-01-28T07:38:23.037Z,6.00
2019-01-28T07:39:22.950Z,6.10
2019-01-28T07:40:22.873Z,6.20
2019-01-28T07:41:22.773Z,6.10
2019-01-28T07:42:22.702Z,6.20
2019-01-28T07:43:22.608Z,6.60
2019-01-28T07:44:22.510Z,6.40
2019-01-28T07:45:22.424Z,6.20
2019-01-28T07:46:22.343Z,6.30
2019-01-28T07:47:22.261Z,6.50
2019-01-28T07:48:22.166Z,6.50
2019-01-28T07:49:22.082Z,6.60
2019-01-28T07:50:21.992Z,6.50
2019-01-28T07:51:21.901Z,6.50
2019-01-28T07:52:21.841Z,6.80
2019-01-28T07:53:21.730Z,6.70
2019-01-28T07:54:21.645Z,7.00
2019-01-28T07:55:21.553Z,7.50
2019-01-28T07:56:21.465Z,8.00
2019-01-28T07:57:21.383Z,7.10
2019-01-28T07:58:21.286Z,7.70
2019-01-28T07:59:21.196Z,7.50
2019-01-28T08:00:21.106Z,8.20
2019-01-28T08:01:21.032Z,8.30
2019-01-28T08:02:20.947Z,8.40
2019-01-28T08:03:20.846Z,7.90
2019-01-28T08:04:20.761Z,7.80
2019-01-28T08:05:20.672Z,7.60
2019-01-28T08:06:20.589Z,7.50
2019-01-28T08:07:20.513Z,7.80
2019-01-28T08:08:20.408Z,7.50
2019-01-28T08:09:20.314Z,7.20
2019-01-28T08:10:20.233Z,7.70
2019-01-28T08:11:20.141Z,8.00
2019-01-28T08:12:20.082Z,7.80
2019-01-28T08:13:19.964Z,7.50
2019-01-28T08:14:19.882Z,8.20
2019-01-28T08:15:19.814Z,7.80
2019-01-28T08:16:19.705Z,7.80
2019-01-28T08:17:19.612Z,7.90
2019-01-28T08:18:19.547Z,7.60
2019-01-28T08:19:19.444Z,8.50
2019-01-28T08:20:19.352Z,8.10
2019-01-28T08:21:19.268Z,8.60
2019-01-28T08:22:19.179Z,8.30
2019-01-28T08:23:19.112Z,8.70
2019-01-28T08:24:19.002Z,9.00
2019-01-28T08:25:18.919Z,9.00
2019-01-28T08:26:18.841Z,8.80
2019-01-28T08:27:18.775Z,8.80
2019-01-28T08:28:18.670Z,9.30
2019-01-28T08:29:18.568Z,9.10
2019-01-28T08:30:18.479Z,9.20
2019-01-28T08:31:18.387Z,9.60
2019-01-28T08:32:18.308Z,9.60
2019-01-28T08:33:18.226Z,9.30
2019-01-28T08:34:18.124Z,9.10
2019-01-28T08:35:18.048Z,9.30
2019-01-28T08:36:17.952Z,9.20
2019-01-28T08:37:17.876Z,9.90
2019-01-28T08:38:17.791Z,9.40
2019-01-28T08:39:17.699Z,9.90
2019-01-28T08:40:17.600Z,9.90
2019-01-28T08:41:17.521Z,9.70
2019-01-28T08:42:17.429Z,9.90
2019-01-28T08:43:17.377Z,10.50
2019-01-28T08:44:17.255Z,10.70
2019-01-28T08:45:17.171Z,10.30
2019-01-28T08:46:17.080Z,10.00
2019-01-28T08:47:16.995Z,10.50
2019-01-28T08:48:18.423Z,10.40
2019-01-28T08:49:16.815Z,11.00
2019-01-28T08:50:16.740Z,10.30
2019-01-28T08:51:16.641Z,10.40
2019-01-28T08:52:16.555Z,10.50
2019-01-28T08:53:16.490Z,10.40
2019-01-28T08:54:16.385Z,10.70
2019-01-28T08:55:16.297Z,10.70
2019-01-28T08:56:16.853Z,10.70
2019-01-28T08:57:16.116Z,10.70
2019-01-28T08:58:16.042Z,10.80
2019-01-28T08:59:15.949Z,10.80
2019-01-28T09:00:15.860Z,11.30
2019-01-28T09:01:15.780Z,11.00
2019-01-28T09:02:15.683Z,10.40
2019-01-28T09:03:15.617Z,10.00
2019-01-28T09:04:15.507Z,10.30
2019-01-28T09:05:15.421Z,10.00
2019-01-28T09:06:15.339Z,10.10
2019-01-28T09:07:15.251Z,9.60
2019-01-28T09:08:15.202Z,9.80
2019-01-28T09:09:15.087Z,8.50
2019-01-28T09:10:14.992Z,9.60
2019-01-28T09:11:14.902Z,9.80
2019-01-28T09:12:14.821Z,9.30
2019-01-28T09:13:14.744Z,8.70
2019-01-28T09:14:14.639Z,8.30
2019-01-28T09:15:14.570Z,8.10
2019-01-28T09:16:14.469Z,8.00
2019-01-28T09:17:14.380Z,7.40
2019-01-28T09:18:14.319Z,6.70
2019-01-28T09:19:14.207Z,7.20
2019-01-28T09:20:14.123Z,7.00
2019-01-28T09:21:14.040Z,7.20
2019-01-28T09:22:13.946Z,6.70
2019-01-28T09:23:13.872Z,7.50
2019-01-28T09:24:13.776Z,7.00
2019-01-28T09:25:13.689Z,7.20
2019-01-28T09:26:13.610Z,7.10
2019-01-28T09:27:13.513Z,7.90
2019-01-28T09:28:13.457Z,7.30
2019-01-28T09:29:13.339Z,7.40
2019-01-28T09:30:13.255Z,7.50
2019-01-28T09:31:13.175Z,7.20
2019-01-28T09:32:13.087Z,7.30
2019-01-28T09:33:13.014Z,6.80
2019-01-28T09:34:12.911Z,6.90
2019-01-28T09:35:12.818Z,6.40
2019-01-28T09:36:12.747Z,6.60
2019-01-28T09:37:14.218Z,6.10
2019-01-28T09:38:12.595Z,6.70
2019-01-28T09:39:12.474Z,6.30
2019-01-28T09:40:12.393Z,6.20
2019-01-28T09:41:12.303Z,5.50
2019-01-28T09:42:12.239Z,5.70
2019-01-28T09:43:12.146Z,5.50
2019-01-28T09:44:13.054Z,5.90
2019-01-28T09:45:11.972Z,5.80
2019-01-28T09:46:11.869Z,6.00
2019-01-28T09:47:11.790Z,5.30
2019-01-28T09:48:11.715Z,5.40
2019-01-28T09:49:11.610Z,5.80
2019-01-28T09:50:11.530Z,5.30
2019-01-28T09:51:11.438Z,5.40
2019-01-28T09:52:11.358Z,5.20
2019-01-28T09:53:11.299Z,5.40
2019-01-28T09:54:11.191Z,4.90
2019-01-28T09:55:11.094Z,4.50
2019-01-28T09:56:11.011Z,5.40
2019-01-28T09:57:10.933Z,4.90
2019-01-28T09:58:10.847Z,4.50
2019-01-28T09:59:10.761Z,5.20
2019-01-28T10:00:10.669Z,4.60
2019-01-28T10:01:10.584Z,4.90
2019-01-28T10:02:10.488Z,4.50
2019-01-28T10:03:10.411Z,4.80
2019-01-28T10:04:10.332Z,4.80
2019-01-28T10:05:10.240Z,4.70
2019-01-28T10:06:10.153Z,5.40
2019-01-28T10:07:10.058Z,4.50
2019-01-28T10:08:09.972Z,4.60
2019-01-28T10:09:10.245Z,4.30
2019-01-28T10:10:09.798Z,5.00
2019-01-28T10:11:09.711Z,5.50
2019-01-28T10:12:09.633Z,5.10
2019-01-28T10:13:09.542Z,5.50
2019-01-28T10:14:09.476Z,4.10
2019-01-28T10:15:09.374Z,3.60
2019-01-28T10:16:09.284Z,3.50
2019-01-28T10:17:09.207Z,3.40
2019-01-28T10:18:09.108Z,3.90
2019-01-28T10:19:09.045Z,4.00
2019-01-28T10:20:08.944Z,3.60
2019-01-28T10:21:08.846Z,3.70
2019-01-28T10:22:08.770Z,3.80
2019-01-28T10:23:08.676Z,3.70
2019-01-28T10:24:08.606Z,3.50
2019-01-28T10:25:08.515Z,3.80
2019-01-28T10:26:08.417Z,3.70
2019-01-28T10:27:08.342Z,3.50
2019-01-28T10:28:08.258Z,2.90
2019-01-28T10:29:08.191Z,3.30
2019-01-28T10:30:08.071Z,3.00
2019-01-28T10:31:07.998Z,3.10
2019-01-28T10:32:07.905Z,3.00
2019-01-28T10:33:07.821Z,2.90
2019-01-28T10:34:07.747Z,2.70
2019-01-28T10:35:07.654Z,3.00
2019-01-28T10:36:07.562Z,3.30
2019-01-28T10:37:07.484Z,3.30
2019-01-28T10:38:07.383Z,3.10
2019-01-28T10:39:07.317Z,3.00
2019-01-28T10:40:07.209Z,3.70
2019-01-28T10:41:07.142Z,4.20
2019-01-28T10:42:09.797Z,4.00
2019-01-28T10:43:06.968Z,4.30
2019-01-28T10:44:10.344Z,4.60
2019-01-28T10:45:06.801Z,4.30
2019-01-28T10:46:06.699Z,4.60
2019-01-28T10:47:06.614Z,4.20
2019-01-28T10:48:06.521Z,3.70
2019-01-28T10:49:06.457Z,4.50
2019-01-28T10:50:06.349Z,4.10
2019-01-28T10:51:06.272Z,4.20
2019-01-28T10:52:06.177Z,4.40
2019-01-28T10:53:06.096Z,4.40
2019-01-28T10:54:06.015Z,4.80
2019-01-28T10:55:05.925Z,4.60
2019-01-28T10:56:05.832Z,4.60
2019-01-28T10:57:05.749Z,4.20
2019-01-28T10:58:05.685Z,5.30
2019-01-28T10:59:05.587Z,5.10
2019-01-28T11:00:05.499Z,4.70
2019-01-28T11:01:05.407Z,4.60
2019-01-28T11:02:05.311Z,4.60
2019-01-28T11:03:05.228Z,4.40
2019-01-28T11:04:05.164Z,4.80
2019-01-28T11:05:05.056Z,4.70
2019-01-28T11:06:04.972Z,5.00
2019-01-28T11:07:04.889Z,5.00
2019-01-28T11:08:04.800Z,5.10
2019-01-28T11:09:04.721Z,5.10
2019-01-28T11:10:04.640Z,5.60
2019-01-28T11:11:04.633Z,4.90
2019-01-28T11:12:04.525Z,5.40
2019-01-28T11:13:05.252Z,4.60
2019-01-28T11:14:04.374Z,5.00
2019-01-28T11:15:04.255Z,4.60
2019-01-28T11:16:04.211Z,4.10
2019-01-28T11:17:04.112Z,4.80
2019-01-28T11:18:04.063Z,4.20
2019-01-28T11:19:03.993Z,4.30
2019-01-28T11:20:03.773Z,4.50
2019-01-28T11:21:03.710Z,4.10
2019-01-28T11:22:03.672Z,4.10
2019-01-28T11:23:03.529Z,4.00
2019-01-28T11:24:03.437Z,3.90
2019-01-28T11:25:03.359Z,4.60
2019-01-28T11:26:03.274Z,4.50
2019-01-28T11:27:03.301Z,4.40
2019-01-28T11:28:03.192Z,4.20
2019-01-28T11:29:03.094Z,4.40
2019-01-28T11:30:02.935Z,4.10
2019-01-28T11:31:02.825Z,3.80
2019-01-28T11:32:02.822Z,3.50
2019-01-28T11:33:02.639Z,3.90
2019-01-28T11:34:02.580Z,3.30
2019-01-28T11:35:02.545Z,3.70
2019-01-28T11:36:05.484Z,3.50
2019-01-28T11:37:02.379Z,3.60
2019-01-28T11:38:02.237Z,4.10
2019-01-28T11:39:02.234Z,3.10
2019-01-28T11:40:02.046Z,3.70
2019-01-28T11:41:02.068Z,3.10
2019-01-28T11:42:01.872Z,3.40
2019-01-28T11:43:01.883Z,3.50
2019-01-28T11:44:01.718Z,3.50
2019-01-28T11:45:01.684Z,3.20
2019-01-28T11:46:01.640Z,3.30
2019-01-28T11:47:01.571Z,3.20
2019-01-28T11:48:01.413Z,4.00
2019-01-28T11:49:05.774Z,3.50
2019-01-28T11:50:01.198Z,3.30
2019-01-28T11:51:01.099Z,3.30
2019-01-28T11:52:01.006Z,3.40
2019-01-28T11:53:00.934Z,3.40
2019-01-28T11:54:00.834Z,3.70
2019-01-28T11:55:00.771Z,3.40
2019-01-28T11:56:00.666Z,3.70
2019-01-28T11:57:00.583Z,3.50
2019-01-28T11:58:00.497Z,3.60
2019-01-28T11:59:00.405Z,3.60
2019-01-28T12:00:00.335Z,3.30
2019-01-28T12:01:00.243Z,3.40
2019-01-28T12:02:00.150Z,3.80
2019-01-28T12:03:00.078Z,3.70
2019-01-28T12:03:59.988Z,3.60
2019-01-28T12:04:59.904Z,3.70
2019-01-28T12:05:59.802Z,4.10
2019-01-28T12:06:59.733Z,3.90
2019-01-28T12:07:59.633Z,3.80
2019-01-28T12:08:59.551Z,3.60
2019-01-28T12:09:59.471Z,3.50
2019-01-28T12:10:59.384Z,3.60
2019-01-28T12:11:59.289Z,3.70
2019-01-28T12:12:59.215Z,3.00
2019-01-28T12:13:59.116Z,3.40
2019-01-28T12:14:59.048Z,3.20
2019-01-28T12:15:58.947Z,3.00
2019-01-28T12:16:58.856Z,3.50
2019-01-28T12:17:58.775Z,3.30
2019-01-28T12:18:58.685Z,3.10
2019-01-28T12:19:58.614Z,3.70
2019-01-28T12:20:58.515Z,3.50
2019-01-28T12:21:58.425Z,3.60
2019-01-28T12:22:58.349Z,3.20
2019-01-28T12:23:58.265Z,3.30
2019-01-28T12:24:58.189Z,3.30
2019-01-28T12:25:58.084Z,3.50
2019-01-28T12:26:58.018Z,3.10
2019-01-28T12:27:57.906Z,3.20
2019-01-28T12:28:57.832Z,3.60
2019-01-28T12:29:57.755Z,3.20
2019-01-28T12:30:57.649Z,3.10
2019-01-28T12:31:57.577Z,3.50
2019-01-28T12:32:57.475Z,3.20
2019-01-28T12:33:57.390Z,3.20
2019-01-28T12:34:57.322Z,3.00
2019-01-28T12:35:57.216Z,3.40
2019-01-28T12:36:57.133Z,2.80
2019-01-28T12:37:57.071Z,3.10
2019-01-28T12:38:56.989Z,2.70
2019-01-28T12:39:56.941Z,2.90
2019-01-28T12:40:56.799Z,2.80
2019-01-28T12:41:56.700Z,3.00
2019-01-28T12:42:56.623Z,2.70
2019-01-28T12:43:56.532Z,2.30
2019-01-28T12:44:56.463Z,2.50
2019-01-28T12:45:56.357Z,2.70
2019-01-28T12:46:56.282Z,2.40
2019-01-28T12:47:56.184Z,2.20
2019-01-28T12:48:56.102Z,2.60
2019-01-28T12:49:56.029Z,2.30
2019-01-28T12:50:55.927Z,2.60
2019-01-28T12:51:55.841Z,2.20
2019-01-28T12:52:55.752Z,2.30
2019-01-28T12:53:55.667Z,2.20
2019-01-28T12:54:55.614Z,2.30
2019-01-28T12:55:55.490Z,2.30
2019-01-28T12:56:55.416Z,2.20
2019-01-28T12:57:55.325Z,2.80
2019-01-28T12:58:55.228Z,2.80
2019-01-28T12:59:55.166Z,2.70
2019-01-28T13:00:55.436Z,2.90
2019-01-28T13:01:54.970Z,2.60
2019-01-28T13:02:54.897Z,2.90
2019-01-28T13:03:54.797Z,2.70
2019-01-28T13:04:54.723Z,2.20
2019-01-28T13:05:54.629Z,2.10
2019-01-28T13:06:54.536Z,2.60
2019-01-28T13:07:54.453Z,2.50
2019-01-28T13:08:54.372Z,2.40
2019-01-28T13:09:54.302Z,2.60
2019-01-28T13:10:54.192Z,2.50
2019-01-28T13:11:54.139Z,2.60
2019-01-28T13:12:54.024Z,2.60
2019-01-28T13:13:53.937Z,2.70
2019-01-28T13:14:53.864Z,2.80
2019-01-28T13:15:53.773Z,2.60